sensor_id;sensor_type;location;lat;lon;timestamp;temperature;humidity
20041;DHT22;10181;48.072;9.884;2023-04-20T00:02:11;3.90;99.90
20041;DHT22;10181;48.072;9.884;2023-04-20T00:04:39;3.90;99.90
20041;DHT22;10181;48.072;9.884;2023-04-20T00:07:05;3.90;99.90
20041;DHT22;10181;48.072;9.884;2023-04-20T00:09:31;3.90;99.90
20041;DHT22;10181;48.072;9.884;2023-04-20T00:11:56;3.80;99.90
20041;DHT22;10181;48.072;9.884;2023-04-20T00:14:22;3.80;99.90
20041;DHT22;10181;48.072;9.884;2023-04-20T00:16:48;3.80;99.90
20041;DHT22;10181;48.072;9.884;2023-04-20T00:19:13;3.80;99.90
20041;DHT22;10181;48.072;9.884;2023-04-20T00:21:39;3.90;99.90
20041;DHT22;10181;48.072;9.884;2023-04-20T00:24:05;4.00;99.90
20041;DHT22;10181;48.072;9.884;2023-04-20T00:26:31;4.00;99.90
20041;DHT22;10181;48.072;9.884;2023-04-20T00:28:57;4.00;99.90
20041;DHT22;10181;48.072;9.884;2023-04-20T00:31:22;3.90;99.90
20041;DHT22;10181;48.072;9.884;2023-04-20T00:33:48;3.90;99.90
20041;DHT22;10181;48.072;9.884;2023-04-20T00:36:14;3.90;99.90
20041;DHT22;10181;48.072;9.884;2023-04-20T00:38:39;3.80;99.90
20041;DHT22;10181;48.072;9.884;2023-04-20T00:41:05;3.80;99.90
20041;DHT22;10181;48.072;9.884;2023-04-20T00:43:31;3.80;99.90
20041;DHT22;10181;48.072;9.884;2023-04-20T00:45:56;3.80;99.90
20041;DHT22;10181;48.072;9.884;2023-04-20T00:48:22;3.90;99.90
20041;DHT22;10181;48.072;9.884;2023-04-20T00:50:48;3.90;99.90
20041;DHT22;10181;48.072;9.884;2023-04-20T00:53:15;4.00;99.90
20041;DHT22;10181;48.072;9.884;2023-04-20T00:55:43;4.00;99.90
20041;DHT22;10181;48.072;9.884;2023-04-20T00:58:08;4.00;99.90
20041;DHT22;10181;48.072;9.884;2023-04-20T01:00:35;4.00;99.90
20041;DHT22;10181;48.072;9.884;2023-04-20T01:03:01;4.00;99.90
20041;DHT22;10181;48.072;9.884;2023-04-20T01:05:27;4.00;99.90
20041;DHT22;10181;48.072;9.884;2023-04-20T01:07:53;3.90;99.90
20041;DHT22;10181;48.072;9.884;2023-04-20T01:10:18;3.90;99.90
20041;DHT22;10181;48.072;9.884;2023-04-20T01:12:44;3.90;99.90
20041;DHT22;10181;48.072;9.884;2023-04-20T01:15:10;3.90;99.90
20041;DHT22;10181;48.072;9.884;2023-04-20T01:17:36;3.90;99.90
20041;DHT22;10181;48.072;9.884;2023-04-20T01:20:05;3.90;99.90
20041;DHT22;10181;48.072;9.884;2023-04-20T01:22:33;3.90;99.90
20041;DHT22;10181;48.072;9.884;2023-04-20T01:24:59;4.00;99.90
20041;DHT22;10181;48.072;9.884;2023-04-20T01:27:24;3.90;99.90
20041;DHT22;10181;48.072;9.884;2023-04-20T01:29:50;3.90;99.90
20041;DHT22;10181;48.072;9.884;2023-04-20T01:32:16;3.90;99.90
20041;DHT22;10181;48.072;9.884;2023-04-20T01:34:41;3.90;99.90
20041;DHT22;10181;48.072;9.884;2023-04-20T01:37:07;4.00;99.90
20041;DHT22;10181;48.072;9.884;2023-04-20T01:39:37;4.00;99.90
20041;DHT22;10181;48.072;9.884;2023-04-20T01:42:04;4.00;99.90
20041;DHT22;10181;48.072;9.884;2023-04-20T01:44:30;4.00;99.90
20041;DHT22;10181;48.072;9.884;2023-04-20T01:46:56;4.00;99.90
20041;DHT22;10181;48.072;9.884;2023-04-20T01:49:21;4.00;99.90
20041;DHT22;10181;48.072;9.884;2023-04-20T01:51:47;4.00;99.90
20041;DHT22;10181;48.072;9.884;2023-04-20T01:54:13;4.00;99.90
20041;DHT22;10181;48.072;9.884;2023-04-20T01:56:38;4.00;99.90
20041;DHT22;10181;48.072;9.884;2023-04-20T01:59:04;4.00;99.90
20041;DHT22;10181;48.072;9.884;2023-04-20T02:01:29;4.00;99.90
20041;DHT22;10181;48.072;9.884;2023-04-20T02:03:55;4.00;99.90
20041;DHT22;10181;48.072;9.884;2023-04-20T02:06:21;4.00;99.90
20041;DHT22;10181;48.072;9.884;2023-04-20T02:08:46;4.10;99.90
20041;DHT22;10181;48.072;9.884;2023-04-20T02:11:12;4.10;99.90
20041;DHT22;10181;48.072;9.884;2023-04-20T02:13:38;4.10;99.90
20041;DHT22;10181;48.072;9.884;2023-04-20T02:16:04;4.10;99.90
20041;DHT22;10181;48.072;9.884;2023-04-20T02:18:29;4.10;99.90
20041;DHT22;10181;48.072;9.884;2023-04-20T02:20:57;4.10;99.90
20041;DHT22;10181;48.072;9.884;2023-04-20T02:23:23;4.10;99.90
20041;DHT22;10181;48.072;9.884;2023-04-20T02:25:49;4.20;99.90
20041;DHT22;10181;48.072;9.884;2023-04-20T02:28:15;4.30;99.90
20041;DHT22;10181;48.072;9.884;2023-04-20T02:30:40;4.20;99.90
20041;DHT22;10181;48.072;9.884;2023-04-20T02:33:06;4.30;99.90
20041;DHT22;10181;48.072;9.884;2023-04-20T02:35:32;4.20;99.90
20041;DHT22;10181;48.072;9.884;2023-04-20T02:37:58;4.20;99.90
20041;DHT22;10181;48.072;9.884;2023-04-20T02:40:24;4.20;99.90
20041;DHT22;10181;48.072;9.884;2023-04-20T02:42:49;4.10;99.90
20041;DHT22;10181;48.072;9.884;2023-04-20T02:45:15;4.10;99.90
20041;DHT22;10181;48.072;9.884;2023-04-20T02:47:41;4.10;99.90
20041;DHT22;10181;48.072;9.884;2023-04-20T02:50:07;4.10;99.90
20041;DHT22;10181;48.072;9.884;2023-04-20T02:52:33;4.10;99.90
20041;DHT22;10181;48.072;9.884;2023-04-20T02:54:59;4.10;99.90
20041;DHT22;10181;48.072;9.884;2023-04-20T02:57:25;4.20;99.90
20041;DHT22;10181;48.072;9.884;2023-04-20T02:59:51;4.20;99.90
20041;DHT22;10181;48.072;9.884;2023-04-20T03:02:16;4.20;99.90
20041;DHT22;10181;48.072;9.884;2023-04-20T03:04:42;4.20;99.90
20041;DHT22;10181;48.072;9.884;2023-04-20T03:07:08;4.20;99.90
20041;DHT22;10181;48.072;9.884;2023-04-20T03:09:35;4.20;99.90
20041;DHT22;10181;48.072;9.884;2023-04-20T03:12:02;4.20;99.90
20041;DHT22;10181;48.072;9.884;2023-04-20T03:14:28;4.20;99.90
20041;DHT22;10181;48.072;9.884;2023-04-20T03:16:54;4.20;99.90
20041;DHT22;10181;48.072;9.884;2023-04-20T03:19:19;4.30;99.90
20041;DHT22;10181;48.072;9.884;2023-04-20T03:21:45;4.20;99.90
20041;DHT22;10181;48.072;9.884;2023-04-20T03:24:11;4.20;99.90
20041;DHT22;10181;48.072;9.884;2023-04-20T03:26:36;4.20;99.90
20041;DHT22;10181;48.072;9.884;2023-04-20T03:29:02;4.20;99.90
20041;DHT22;10181;48.072;9.884;2023-04-20T03:31:27;4.30;99.90
20041;DHT22;10181;48.072;9.884;2023-04-20T03:33:53;4.30;99.90
20041;DHT22;10181;48.072;9.884;2023-04-20T03:36:18;4.30;99.90
20041;DHT22;10181;48.072;9.884;2023-04-20T03:38:44;4.20;99.90
20041;DHT22;10181;48.072;9.884;2023-04-20T03:41:10;4.20;99.90
20041;DHT22;10181;48.072;9.884;2023-04-20T03:43:35;4.20;99.90
20041;DHT22;10181;48.072;9.884;2023-04-20T03:46:01;4.30;99.90
20041;DHT22;10181;48.072;9.884;2023-04-20T03:48:26;4.30;99.90
20041;DHT22;10181;48.072;9.884;2023-04-20T03:50:52;4.20;99.90
20041;DHT22;10181;48.072;9.884;2023-04-20T03:53:18;4.30;99.90
20041;DHT22;10181;48.072;9.884;2023-04-20T03:55:43;4.30;99.90
20041;DHT22;10181;48.072;9.884;2023-04-20T03:58:09;4.30;99.90
20041;DHT22;10181;48.072;9.884;2023-04-20T04:00:35;4.30;99.90
20041;DHT22;10181;48.072;9.884;2023-04-20T04:03:00;4.30;99.90
20041;DHT22;10181;48.072;9.884;2023-04-20T04:05:26;4.30;99.90
20041;DHT22;10181;48.072;9.884;2023-04-20T04:07:51;4.20;99.90
20041;DHT22;10181;48.072;9.884;2023-04-20T04:10:17;4.20;99.90
20041;DHT22;10181;48.072;9.884;2023-04-20T04:12:44;4.20;99.90
20041;DHT22;10181;48.072;9.884;2023-04-20T04:15:10;4.20;99.90
20041;DHT22;10181;48.072;9.884;2023-04-20T04:17:36;4.20;99.90
20041;DHT22;10181;48.072;9.884;2023-04-20T04:20:02;4.20;99.90
20041;DHT22;10181;48.072;9.884;2023-04-20T04:22:28;4.20;99.90
20041;DHT22;10181;48.072;9.884;2023-04-20T04:24:54;4.20;99.90
20041;DHT22;10181;48.072;9.884;2023-04-20T04:27:19;4.10;99.90
20041;DHT22;10181;48.072;9.884;2023-04-20T04:29:46;4.20;99.90
20041;DHT22;10181;48.072;9.884;2023-04-20T04:32:14;4.10;99.90
20041;DHT22;10181;48.072;9.884;2023-04-20T04:34:40;4.10;99.90
20041;DHT22;10181;48.072;9.884;2023-04-20T04:37:09;4.10;99.90
20041;DHT22;10181;48.072;9.884;2023-04-20T04:39:35;4.10;99.90
20041;DHT22;10181;48.072;9.884;2023-04-20T04:42:01;4.20;99.90
20041;DHT22;10181;48.072;9.884;2023-04-20T04:44:27;4.10;99.90
20041;DHT22;10181;48.072;9.884;2023-04-20T04:46:54;4.10;99.90
20041;DHT22;10181;48.072;9.884;2023-04-20T04:49:19;4.10;99.90
20041;DHT22;10181;48.072;9.884;2023-04-20T04:51:46;4.10;99.90
20041;DHT22;10181;48.072;9.884;2023-04-20T04:54:12;4.10;99.90
20041;DHT22;10181;48.072;9.884;2023-04-20T04:56:37;4.10;99.90
20041;DHT22;10181;48.072;9.884;2023-04-20T04:59:03;4.20;99.90
20041;DHT22;10181;48.072;9.884;2023-04-20T05:01:29;4.10;99.90
20041;DHT22;10181;48.072;9.884;2023-04-20T05:03:54;4.20;99.90
20041;DHT22;10181;48.072;9.884;2023-04-20T05:06:20;4.20;99.90
20041;DHT22;10181;48.072;9.884;2023-04-20T05:08:45;4.20;99.90
20041;DHT22;10181;48.072;9.884;2023-04-20T05:11:11;4.20;99.90
20041;DHT22;10181;48.072;9.884;2023-04-20T05:13:36;4.20;99.90
20041;DHT22;10181;48.072;9.884;2023-04-20T05:16:02;4.30;99.90
20041;DHT22;10181;48.072;9.884;2023-04-20T05:18:28;4.30;99.90
20041;DHT22;10181;48.072;9.884;2023-04-20T05:20:53;4.30;99.90
20041;DHT22;10181;48.072;9.884;2023-04-20T05:23:19;4.30;99.90
20041;DHT22;10181;48.072;9.884;2023-04-20T05:25:44;4.30;99.90
20041;DHT22;10181;48.072;9.884;2023-04-20T05:28:10;4.30;99.90
20041;DHT22;10181;48.072;9.884;2023-04-20T05:30:36;4.40;99.90
20041;DHT22;10181;48.072;9.884;2023-04-20T05:33:01;4.40;99.90
20041;DHT22;10181;48.072;9.884;2023-04-20T05:35:27;4.40;99.90
20041;DHT22;10181;48.072;9.884;2023-04-20T05:37:52;4.40;99.90
20041;DHT22;10181;48.072;9.884;2023-04-20T05:40:18;4.50;99.90
20041;DHT22;10181;48.072;9.884;2023-04-20T05:42:44;4.50;99.90
20041;DHT22;10181;48.072;9.884;2023-04-20T05:45:10;4.50;99.90
20041;DHT22;10181;48.072;9.884;2023-04-20T05:47:35;4.40;99.90
20041;DHT22;10181;48.072;9.884;2023-04-20T05:50:01;4.40;99.90
20041;DHT22;10181;48.072;9.884;2023-04-20T05:52:27;4.40;99.90
20041;DHT22;10181;48.072;9.884;2023-04-20T05:54:52;4.50;99.90
20041;DHT22;10181;48.072;9.884;2023-04-20T05:57:18;4.50;99.90
20041;DHT22;10181;48.072;9.884;2023-04-20T05:59:44;4.50;99.90
20041;DHT22;10181;48.072;9.884;2023-04-20T06:02:10;4.50;99.90
20041;DHT22;10181;48.072;9.884;2023-04-20T06:04:38;4.50;99.90
20041;DHT22;10181;48.072;9.884;2023-04-20T06:07:04;4.50;99.90
20041;DHT22;10181;48.072;9.884;2023-04-20T06:09:30;4.40;99.90
20041;DHT22;10181;48.072;9.884;2023-04-20T06:11:55;4.40;99.90
20041;DHT22;10181;48.072;9.884;2023-04-20T06:14:21;4.50;99.90
20041;DHT22;10181;48.072;9.884;2023-04-20T06:16:47;4.50;99.90
20041;DHT22;10181;48.072;9.884;2023-04-20T06:19:12;4.50;99.90
20041;DHT22;10181;48.072;9.884;2023-04-20T06:21:38;4.50;99.90
20041;DHT22;10181;48.072;9.884;2023-04-20T06:24:04;4.60;99.90
20041;DHT22;10181;48.072;9.884;2023-04-20T06:26:29;4.50;99.90
20041;DHT22;10181;48.072;9.884;2023-04-20T06:28:55;4.60;99.90
20041;DHT22;10181;48.072;9.884;2023-04-20T06:31:21;4.50;99.90
20041;DHT22;10181;48.072;9.884;2023-04-20T06:33:47;4.60;99.90
20041;DHT22;10181;48.072;9.884;2023-04-20T06:36:13;4.60;99.90
20041;DHT22;10181;48.072;9.884;2023-04-20T06:38:38;4.60;99.90
20041;DHT22;10181;48.072;9.884;2023-04-20T06:41:05;4.60;99.90
20041;DHT22;10181;48.072;9.884;2023-04-20T06:43:30;4.60;99.90
20041;DHT22;10181;48.072;9.884;2023-04-20T06:45:56;4.50;99.90
20041;DHT22;10181;48.072;9.884;2023-04-20T06:48:22;4.50;99.90
20041;DHT22;10181;48.072;9.884;2023-04-20T06:50:48;4.50;99.90
20041;DHT22;10181;48.072;9.884;2023-04-20T06:53:14;4.50;99.90
20041;DHT22;10181;48.072;9.884;2023-04-20T06:55:40;4.50;99.90
20041;DHT22;10181;48.072;9.884;2023-04-20T06:58:05;4.60;99.90
20041;DHT22;10181;48.072;9.884;2023-04-20T07:00:31;4.50;99.90
20041;DHT22;10181;48.072;9.884;2023-04-20T07:02:57;4.50;99.90
20041;DHT22;10181;48.072;9.884;2023-04-20T07:05:22;4.60;99.90
20041;DHT22;10181;48.072;9.884;2023-04-20T07:07:48;4.50;99.90
20041;DHT22;10181;48.072;9.884;2023-04-20T07:10:14;4.50;99.90
20041;DHT22;10181;48.072;9.884;2023-04-20T07:12:40;4.50;99.90
20041;DHT22;10181;48.072;9.884;2023-04-20T07:15:07;4.50;99.90
20041;DHT22;10181;48.072;9.884;2023-04-20T07:17:33;4.50;99.90
20041;DHT22;10181;48.072;9.884;2023-04-20T07:20:00;4.50;99.90
20041;DHT22;10181;48.072;9.884;2023-04-20T07:22:30;4.50;99.90
20041;DHT22;10181;48.072;9.884;2023-04-20T07:24:56;4.50;99.90
20041;DHT22;10181;48.072;9.884;2023-04-20T07:27:22;4.60;99.90
20041;DHT22;10181;48.072;9.884;2023-04-20T07:29:47;4.60;99.90
20041;DHT22;10181;48.072;9.884;2023-04-20T07:32:13;4.70;99.90
20041;DHT22;10181;48.072;9.884;2023-04-20T07:34:39;4.70;99.90
20041;DHT22;10181;48.072;9.884;2023-04-20T07:37:04;4.80;99.90
20041;DHT22;10181;48.072;9.884;2023-04-20T07:39:30;4.80;99.90
20041;DHT22;10181;48.072;9.884;2023-04-20T07:41:56;4.80;99.90
20041;DHT22;10181;48.072;9.884;2023-04-20T07:44:21;4.90;99.90
20041;DHT22;10181;48.072;9.884;2023-04-20T07:46:47;5.00;99.90
20041;DHT22;10181;48.072;9.884;2023-04-20T07:49:14;5.00;99.90
20041;DHT22;10181;48.072;9.884;2023-04-20T07:51:39;5.00;99.90
20041;DHT22;10181;48.072;9.884;2023-04-20T07:54:05;5.10;99.90
20041;DHT22;10181;48.072;9.884;2023-04-20T07:56:32;5.10;99.90
20041;DHT22;10181;48.072;9.884;2023-04-20T07:58:57;5.20;99.90
20041;DHT22;10181;48.072;9.884;2023-04-20T08:01:24;5.20;99.90
20041;DHT22;10181;48.072;9.884;2023-04-20T08:03:50;5.20;99.90
20041;DHT22;10181;48.072;9.884;2023-04-20T08:06:16;5.20;99.90
20041;DHT22;10181;48.072;9.884;2023-04-20T08:08:41;5.30;99.90
20041;DHT22;10181;48.072;9.884;2023-04-20T08:11:07;5.20;99.90
20041;DHT22;10181;48.072;9.884;2023-04-20T08:13:34;5.20;99.90
20041;DHT22;10181;48.072;9.884;2023-04-20T08:16:00;5.20;99.90
20041;DHT22;10181;48.072;9.884;2023-04-20T08:18:25;5.20;99.90
20041;DHT22;10181;48.072;9.884;2023-04-20T08:20:51;5.10;99.90
20041;DHT22;10181;48.072;9.884;2023-04-20T08:23:16;5.20;99.90
20041;DHT22;10181;48.072;9.884;2023-04-20T08:25:42;5.30;99.90
20041;DHT22;10181;48.072;9.884;2023-04-20T08:28:08;5.30;99.90
20041;DHT22;10181;48.072;9.884;2023-04-20T08:30:33;5.30;99.90
20041;DHT22;10181;48.072;9.884;2023-04-20T08:32:59;5.40;99.90
20041;DHT22;10181;48.072;9.884;2023-04-20T08:35:24;5.30;99.90
20041;DHT22;10181;48.072;9.884;2023-04-20T08:37:50;5.30;99.90
20041;DHT22;10181;48.072;9.884;2023-04-20T08:40:16;5.40;99.90
20041;DHT22;10181;48.072;9.884;2023-04-20T08:42:44;5.30;99.90
20041;DHT22;10181;48.072;9.884;2023-04-20T08:45:10;5.30;99.90
20041;DHT22;10181;48.072;9.884;2023-04-20T08:47:37;5.40;99.90
20041;DHT22;10181;48.072;9.884;2023-04-20T08:50:03;5.40;99.90
20041;DHT22;10181;48.072;9.884;2023-04-20T08:52:29;5.40;99.90
20041;DHT22;10181;48.072;9.884;2023-04-20T08:54:55;5.40;99.90
20041;DHT22;10181;48.072;9.884;2023-04-20T08:57:21;5.50;99.90
20041;DHT22;10181;48.072;9.884;2023-04-20T08:59:47;5.60;99.90
20041;DHT22;10181;48.072;9.884;2023-04-20T09:02:13;5.70;99.90
20041;DHT22;10181;48.072;9.884;2023-04-20T09:04:39;5.70;99.90
20041;DHT22;10181;48.072;9.884;2023-04-20T09:07:05;5.60;99.90
20041;DHT22;10181;48.072;9.884;2023-04-20T09:09:31;5.60;99.90
20041;DHT22;10181;48.072;9.884;2023-04-20T09:12:07;5.60;99.90
20041;DHT22;10181;48.072;9.884;2023-04-20T09:14:44;5.70;99.90
20041;DHT22;10181;48.072;9.884;2023-04-20T09:17:10;5.80;99.90
20041;DHT22;10181;48.072;9.884;2023-04-20T09:19:39;5.80;99.90
20041;DHT22;10181;48.072;9.884;2023-04-20T09:22:05;6.00;99.90
20041;DHT22;10181;48.072;9.884;2023-04-20T09:24:35;6.00;99.90
20041;DHT22;10181;48.072;9.884;2023-04-20T09:27:12;6.10;99.90
20041;DHT22;10181;48.072;9.884;2023-04-20T09:29:38;6.00;99.90
20041;DHT22;10181;48.072;9.884;2023-04-20T09:32:04;5.90;99.90
20041;DHT22;10181;48.072;9.884;2023-04-20T09:34:30;6.00;99.90
20041;DHT22;10181;48.072;9.884;2023-04-20T09:36:56;5.90;99.90
20041;DHT22;10181;48.072;9.884;2023-04-20T09:39:23;5.80;99.90
20041;DHT22;10181;48.072;9.884;2023-04-20T09:41:50;5.90;99.90
20041;DHT22;10181;48.072;9.884;2023-04-20T09:44:17;5.80;99.90
20041;DHT22;10181;48.072;9.884;2023-04-20T09:46:43;5.70;99.90
20041;DHT22;10181;48.072;9.884;2023-04-20T09:49:11;5.60;99.90
20041;DHT22;10181;48.072;9.884;2023-04-20T09:51:41;5.50;99.90
20041;DHT22;10181;48.072;9.884;2023-04-20T09:54:11;5.40;99.90
20041;DHT22;10181;48.072;9.884;2023-04-20T09:56:38;5.40;99.90
20041;DHT22;10181;48.072;9.884;2023-04-20T09:59:04;5.30;99.90
20041;DHT22;10181;48.072;9.884;2023-04-20T10:01:31;5.30;99.90
20041;DHT22;10181;48.072;9.884;2023-04-20T10:03:59;5.30;99.90
20041;DHT22;10181;48.072;9.884;2023-04-20T10:06:30;5.30;99.90
20041;DHT22;10181;48.072;9.884;2023-04-20T10:09:01;5.30;99.90
20041;DHT22;10181;48.072;9.884;2023-04-20T10:11:38;5.40;99.90
20041;DHT22;10181;48.072;9.884;2023-04-20T10:14:18;5.40;99.90
20041;DHT22;10181;48.072;9.884;2023-04-20T10:16:45;5.40;99.90
20041;DHT22;10181;48.072;9.884;2023-04-20T10:19:11;5.40;99.90
20041;DHT22;10181;48.072;9.884;2023-04-20T10:21:47;5.50;99.90
20041;DHT22;10181;48.072;9.884;2023-04-20T10:24:14;5.40;99.90
20041;DHT22;10181;48.072;9.884;2023-04-20T10:26:42;5.50;99.90
20041;DHT22;10181;48.072;9.884;2023-04-20T10:29:09;5.60;99.90
20041;DHT22;10181;48.072;9.884;2023-04-20T10:31:39;5.60;99.90
20041;DHT22;10181;48.072;9.884;2023-04-20T10:34:06;5.60;99.90
20041;DHT22;10181;48.072;9.884;2023-04-20T10:36:34;5.70;99.90
20041;DHT22;10181;48.072;9.884;2023-04-20T10:41:52;5.80;99.90
20041;DHT22;10181;48.072;9.884;2023-04-20T10:44:19;5.80;99.90
20041;DHT22;10181;48.072;9.884;2023-04-20T10:46:48;5.80;99.90
20041;DHT22;10181;48.072;9.884;2023-04-20T10:49:14;5.80;99.90
20041;DHT22;10181;48.072;9.884;2023-04-20T10:51:50;5.80;99.90
20041;DHT22;10181;48.072;9.884;2023-04-20T10:54:16;5.90;99.90
20041;DHT22;10181;48.072;9.884;2023-04-20T10:56:43;5.90;99.90
20041;DHT22;10181;48.072;9.884;2023-04-20T10:59:18;5.90;99.90
20041;DHT22;10181;48.072;9.884;2023-04-20T11:01:44;5.90;99.90
20041;DHT22;10181;48.072;9.884;2023-04-20T11:04:11;5.90;99.90
20041;DHT22;10181;48.072;9.884;2023-04-20T11:06:38;5.90;99.90
20041;DHT22;10181;48.072;9.884;2023-04-20T11:09:16;5.90;99.90
20041;DHT22;10181;48.072;9.884;2023-04-20T11:11:43;5.90;99.90
20041;DHT22;10181;48.072;9.884;2023-04-20T11:14:10;5.90;99.90
20041;DHT22;10181;48.072;9.884;2023-04-20T11:16:37;5.90;99.90
20041;DHT22;10181;48.072;9.884;2023-04-20T11:19:03;6.00;99.90
20041;DHT22;10181;48.072;9.884;2023-04-20T11:24:02;6.10;99.90
20041;DHT22;10181;48.072;9.884;2023-04-20T11:26:38;6.20;99.90
20041;DHT22;10181;48.072;9.884;2023-04-20T11:29:05;6.20;99.90
20041;DHT22;10181;48.072;9.884;2023-04-20T11:31:30;6.30;99.90
20041;DHT22;10181;48.072;9.884;2023-04-20T11:33:56;6.40;99.90
20041;DHT22;10181;48.072;9.884;2023-04-20T11:36:24;6.40;99.90
20041;DHT22;10181;48.072;9.884;2023-04-20T11:38:54;6.40;99.90
20041;DHT22;10181;48.072;9.884;2023-04-20T11:41:20;6.40;99.90
20041;DHT22;10181;48.072;9.884;2023-04-20T11:43:46;6.30;99.90
20041;DHT22;10181;48.072;9.884;2023-04-20T11:46:17;6.30;99.90
20041;DHT22;10181;48.072;9.884;2023-04-20T11:48:44;6.20;99.90
20041;DHT22;10181;48.072;9.884;2023-04-20T11:51:10;6.20;99.90
20041;DHT22;10181;48.072;9.884;2023-04-20T11:53:35;6.20;99.90
20041;DHT22;10181;48.072;9.884;2023-04-20T11:56:02;6.20;99.90
20041;DHT22;10181;48.072;9.884;2023-04-20T11:58:28;6.30;99.90
20041;DHT22;10181;48.072;9.884;2023-04-20T12:00:54;6.30;99.90
20041;DHT22;10181;48.072;9.884;2023-04-20T12:03:19;6.40;99.90
20041;DHT22;10181;48.072;9.884;2023-04-20T12:05:45;6.30;99.90
20041;DHT22;10181;48.072;9.884;2023-04-20T12:08:11;6.30;99.90
20041;DHT22;10181;48.072;9.884;2023-04-20T12:10:36;6.30;99.90
20041;DHT22;10181;48.072;9.884;2023-04-20T12:13:04;6.20;99.90
20041;DHT22;10181;48.072;9.884;2023-04-20T12:15:30;6.20;99.90
20041;DHT22;10181;48.072;9.884;2023-04-20T12:17:56;6.20;99.90
20041;DHT22;10181;48.072;9.884;2023-04-20T12:20:22;6.20;99.90
20041;DHT22;10181;48.072;9.884;2023-04-20T12:22:47;6.20;99.90
20041;DHT22;10181;48.072;9.884;2023-04-20T12:25:13;6.10;99.90
20041;DHT22;10181;48.072;9.884;2023-04-20T12:27:39;6.00;99.90
20041;DHT22;10181;48.072;9.884;2023-04-20T12:30:05;6.00;99.90
20041;DHT22;10181;48.072;9.884;2023-04-20T12:32:33;6.00;99.90
20041;DHT22;10181;48.072;9.884;2023-04-20T12:34:59;6.00;99.90
20041;DHT22;10181;48.072;9.884;2023-04-20T12:37:25;6.00;99.90
20041;DHT22;10181;48.072;9.884;2023-04-20T12:39:52;5.90;99.90
20041;DHT22;10181;48.072;9.884;2023-04-20T12:42:18;5.90;99.90
20041;DHT22;10181;48.072;9.884;2023-04-20T12:44:44;5.90;99.90
20041;DHT22;10181;48.072;9.884;2023-04-20T12:47:09;5.90;99.90
20041;DHT22;10181;48.072;9.884;2023-04-20T12:49:35;5.90;99.90
20041;DHT22;10181;48.072;9.884;2023-04-20T12:52:01;5.90;99.90
20041;DHT22;10181;48.072;9.884;2023-04-20T12:54:27;5.80;99.90
20041;DHT22;10181;48.072;9.884;2023-04-20T12:56:53;5.80;99.90
20041;DHT22;10181;48.072;9.884;2023-04-20T12:59:19;5.80;99.90
20041;DHT22;10181;48.072;9.884;2023-04-20T13:01:44;5.80;99.90
20041;DHT22;10181;48.072;9.884;2023-04-20T13:04:10;5.80;99.90
20041;DHT22;10181;48.072;9.884;2023-04-20T13:06:36;5.80;99.90
20041;DHT22;10181;48.072;9.884;2023-04-20T13:09:01;5.80;99.90
20041;DHT22;10181;48.072;9.884;2023-04-20T13:11:29;5.80;99.90
20041;DHT22;10181;48.072;9.884;2023-04-20T13:13:55;5.90;99.90
20041;DHT22;10181;48.072;9.884;2023-04-20T13:16:22;5.90;99.90
20041;DHT22;10181;48.072;9.884;2023-04-20T13:18:48;6.00;99.90
20041;DHT22;10181;48.072;9.884;2023-04-20T13:21:14;6.00;99.90
20041;DHT22;10181;48.072;9.884;2023-04-20T13:23:39;6.00;99.90
20041;DHT22;10181;48.072;9.884;2023-04-20T13:26:06;6.00;99.90
20041;DHT22;10181;48.072;9.884;2023-04-20T13:28:32;6.00;99.90
20041;DHT22;10181;48.072;9.884;2023-04-20T13:30:57;6.00;99.90
20041;DHT22;10181;48.072;9.884;2023-04-20T13:33:23;6.10;99.90
20041;DHT22;10181;48.072;9.884;2023-04-20T13:35:50;6.10;99.90
20041;DHT22;10181;48.072;9.884;2023-04-20T13:38:15;6.20;99.90
20041;DHT22;10181;48.072;9.884;2023-04-20T13:40:41;6.20;99.90
20041;DHT22;10181;48.072;9.884;2023-04-20T13:43:08;6.20;99.90
20041;DHT22;10181;48.072;9.884;2023-04-20T13:45:34;6.20;99.90
20041;DHT22;10181;48.072;9.884;2023-04-20T13:48:00;6.30;99.90
20041;DHT22;10181;48.072;9.884;2023-04-20T13:50:25;6.30;99.90
20041;DHT22;10181;48.072;9.884;2023-04-20T13:52:51;6.20;99.90
20041;DHT22;10181;48.072;9.884;2023-04-20T13:55:18;6.20;99.90
20041;DHT22;10181;48.072;9.884;2023-04-20T13:57:45;6.10;99.90
20041;DHT22;10181;48.072;9.884;2023-04-20T14:00:11;6.10;99.90
20041;DHT22;10181;48.072;9.884;2023-04-20T14:02:37;6.00;99.90
20041;DHT22;10181;48.072;9.884;2023-04-20T14:05:02;6.10;99.90
20041;DHT22;10181;48.072;9.884;2023-04-20T14:07:30;6.00;99.90
20041;DHT22;10181;48.072;9.884;2023-04-20T14:09:56;6.00;99.90
20041;DHT22;10181;48.072;9.884;2023-04-20T14:12:24;6.00;99.90
20041;DHT22;10181;48.072;9.884;2023-04-20T14:14:52;6.00;99.90
20041;DHT22;10181;48.072;9.884;2023-04-20T14:17:17;6.00;99.90
20041;DHT22;10181;48.072;9.884;2023-04-20T14:19:43;5.90;99.90
20041;DHT22;10181;48.072;9.884;2023-04-20T14:22:08;5.80;99.90
20041;DHT22;10181;48.072;9.884;2023-04-20T14:24:34;5.90;99.90
20041;DHT22;10181;48.072;9.884;2023-04-20T14:27:00;5.80;99.90
20041;DHT22;10181;48.072;9.884;2023-04-20T14:29:26;5.80;99.90
20041;DHT22;10181;48.072;9.884;2023-04-20T14:31:51;5.80;99.90
20041;DHT22;10181;48.072;9.884;2023-04-20T14:34:17;5.80;99.90
20041;DHT22;10181;48.072;9.884;2023-04-20T14:36:43;5.70;99.90
20041;DHT22;10181;48.072;9.884;2023-04-20T14:39:08;5.60;99.90
20041;DHT22;10181;48.072;9.884;2023-04-20T14:41:34;5.50;99.90
20041;DHT22;10181;48.072;9.884;2023-04-20T14:44:00;5.50;99.90
20041;DHT22;10181;48.072;9.884;2023-04-20T14:46:25;5.50;99.90
20041;DHT22;10181;48.072;9.884;2023-04-20T14:48:51;5.60;99.90
20041;DHT22;10181;48.072;9.884;2023-04-20T14:51:17;5.60;99.90
20041;DHT22;10181;48.072;9.884;2023-04-20T14:53:44;5.50;99.90
20041;DHT22;10181;48.072;9.884;2023-04-20T14:56:10;5.50;99.90
20041;DHT22;10181;48.072;9.884;2023-04-20T14:58:36;5.40;99.90
20041;DHT22;10181;48.072;9.884;2023-04-20T15:01:02;5.50;99.90
20041;DHT22;10181;48.072;9.884;2023-04-20T15:03:28;5.50;99.90
20041;DHT22;10181;48.072;9.884;2023-04-20T15:05:58;5.50;99.90
20041;DHT22;10181;48.072;9.884;2023-04-20T15:08:24;5.50;99.90
20041;DHT22;10181;48.072;9.884;2023-04-20T15:10:50;5.50;99.90
20041;DHT22;10181;48.072;9.884;2023-04-20T15:13:23;5.60;99.90
20041;DHT22;10181;48.072;9.884;2023-04-20T15:15:49;5.50;99.90
20041;DHT22;10181;48.072;9.884;2023-04-20T15:18:15;5.60;99.90
20041;DHT22;10181;48.072;9.884;2023-04-20T15:20:41;5.60;99.90
20041;DHT22;10181;48.072;9.884;2023-04-20T15:23:07;5.60;99.90
20041;DHT22;10181;48.072;9.884;2023-04-20T15:25:32;5.60;99.90
20041;DHT22;10181;48.072;9.884;2023-04-20T15:27:58;5.60;99.90
20041;DHT22;10181;48.072;9.884;2023-04-20T15:30:24;5.60;99.90
20041;DHT22;10181;48.072;9.884;2023-04-20T15:32:49;5.50;99.90
20041;DHT22;10181;48.072;9.884;2023-04-20T15:35:15;5.50;99.90
20041;DHT22;10181;48.072;9.884;2023-04-20T15:37:41;5.50;99.90
20041;DHT22;10181;48.072;9.884;2023-04-20T15:40:07;5.50;99.90
20041;DHT22;10181;48.072;9.884;2023-04-20T15:42:33;5.50;99.90
20041;DHT22;10181;48.072;9.884;2023-04-20T15:44:58;5.40;99.90